Livingstone, Zambia
Current Conditions -  °F | °C
As of 2:00 PM on Wednesday 22 Oct 2014 (Local Time) from FBKE Reporting Station
Few Clouds Few Clouds  
Wind Chill: 97°   Ceiling: Unl
Heat Index: 97°   Visibility: 6mi
Dew Point: 32°   Wind: 9mph
Humidity: 10%   Direction: NA
Pressure: 30"   Gusts: 24mph
Location:  17.86°S, 25.86°E
Report Text: FBKE 221200Z VRB08G21KT 9999 FEW030 36/00 Q1016
Loading
Personal Weather Stations






























Interactive Weather Map
Tropical Storm Tracking
New forecast layout! Learn more

10-Day Weather Forecast

Advertisements
Track Severe Weather on mobile